createdAt,value
2018-07-12T00:02:13.262Z,99955.00
2018-07-12T00:04:40.977Z,99959.00
2018-07-12T00:07:08.611Z,99957.00
2018-07-12T00:09:36.169Z,99956.00
2018-07-12T00:12:03.704Z,99958.00
2018-07-12T00:14:32.140Z,99954.00
2018-07-12T00:16:59.769Z,99957.00
2018-07-12T00:19:27.316Z,99954.00
2018-07-12T00:21:55.658Z,99955.00
2018-07-12T00:24:23.225Z,99960.00
2018-07-12T00:26:50.881Z,99956.00
2018-07-12T00:29:18.744Z,99961.00
2018-07-12T00:31:46.751Z,99958.00
2018-07-12T00:34:14.563Z,99956.00
2018-07-12T00:36:42.329Z,99954.00
2018-07-12T00:39:11.757Z,99953.00
2018-07-12T00:41:40.032Z,99955.00
2018-07-12T00:44:07.758Z,99954.00
2018-07-12T00:46:35.699Z,99955.00
2018-07-12T00:49:03.350Z,99953.00
2018-07-12T00:51:31.497Z,99953.00
2018-07-12T00:53:59.301Z,99956.00
2018-07-12T00:56:26.883Z,99960.00
2018-07-12T00:58:54.753Z,99961.00
2018-07-12T01:01:22.553Z,99959.00
2018-07-12T01:03:50.267Z,99954.00
2018-07-12T01:06:19.571Z,99949.00
2018-07-12T01:08:47.346Z,99949.00
2018-07-12T01:11:16.638Z,99948.00
2018-07-12T01:13:45.443Z,99944.00
2018-07-12T01:16:13.409Z,99947.00
2018-07-12T01:18:41.208Z,99944.00
2018-07-12T01:21:08.986Z,99947.00
2018-07-12T01:23:36.612Z,99946.00
2018-07-12T01:26:04.611Z,99946.00
2018-07-12T01:28:32.173Z,99947.00
2018-07-12T01:31:00.267Z,99945.00
2018-07-12T01:33:28.175Z,99941.00
2018-07-12T01:35:56.286Z,99945.00
2018-07-12T01:38:24.900Z,99943.00
2018-07-12T01:40:52.594Z,99943.00
2018-07-12T01:43:20.224Z,99947.00
2018-07-12T01:45:47.945Z,99945.00
2018-07-12T01:48:15.610Z,99949.00
2018-07-12T01:50:43.410Z,99953.00
2018-07-12T01:53:11.343Z,99957.00
2018-07-12T01:55:40.824Z,99953.00
2018-07-12T01:58:09.054Z,99956.00
2018-07-12T02:00:37.647Z,99950.00
2018-07-12T02:03:05.247Z,99955.00
2018-07-12T02:05:32.904Z,99950.00
2018-07-12T02:08:00.607Z,99949.00
2018-07-12T02:10:28.251Z,99954.00
2018-07-12T02:12:55.901Z,99942.00
2018-07-12T02:15:24.225Z,99952.00
2018-07-12T02:17:52.717Z,99948.00
2018-07-12T02:20:20.851Z,99949.00
2018-07-12T02:22:48.646Z,99947.00
2018-07-12T02:25:16.627Z,99946.00
2018-07-12T02:27:45.281Z,99954.00
2018-07-12T02:30:13.412Z,99950.00
2018-07-12T02:32:41.384Z,99957.00
2018-07-12T02:35:09.338Z,99962.00
2018-07-12T02:37:37.191Z,99961.00
2018-07-12T02:40:05.007Z,99962.00
2018-07-12T02:42:32.627Z,99966.00
2018-07-12T02:45:00.472Z,99961.00
2018-07-12T02:47:28.217Z,99955.00
2018-07-12T02:49:56.336Z,99953.00
2018-07-12T02:52:24.360Z,99952.00
2018-07-12T02:54:53.963Z,99954.00
2018-07-12T02:57:21.627Z,99948.00
2018-07-12T02:59:49.303Z,99952.00
2018-07-12T03:02:17.045Z,99947.00
2018-07-12T03:04:44.680Z,99954.00
2018-07-12T03:07:13.422Z,99948.00
2018-07-12T03:09:41.038Z,99950.00
2018-07-12T03:12:08.643Z,99950.00
2018-07-12T03:14:36.256Z,99951.00
2018-07-12T03:17:03.912Z,99951.00
2018-07-12T03:19:31.705Z,99946.00
2018-07-12T03:22:00.626Z,99949.00
2018-07-12T03:24:28.476Z,99953.00
2018-07-12T03:26:56.380Z,99951.00
2018-07-12T03:29:23.997Z,99947.00
2018-07-12T03:31:52.085Z,99949.00
2018-07-12T03:34:20.229Z,99949.00
2018-07-12T03:36:47.977Z,99949.00
2018-07-12T03:39:16.386Z,99952.00
2018-07-12T03:41:44.869Z,99946.00
2018-07-12T03:44:13.037Z,99948.00
2018-07-12T03:46:41.077Z,99948.00
2018-07-12T03:49:09.372Z,99943.00
2018-07-12T03:51:38.805Z,99943.00
2018-07-12T03:54:06.489Z,99942.00
2018-07-12T03:56:34.397Z,99949.00
2018-07-12T03:59:02.416Z,99952.00
2018-07-12T04:01:30.408Z,99957.00
2018-07-12T04:03:58.573Z,99956.00
2018-07-12T04:06:26.392Z,99963.00
2018-07-12T04:08:54.592Z,99962.00
2018-07-12T04:11:23.333Z,99961.00
2018-07-12T04:13:51.924Z,99967.00
2018-07-12T04:16:19.655Z,99972.00
2018-07-12T04:18:47.710Z,99978.00
2018-07-12T04:21:15.393Z,99985.00
2018-07-12T04:23:43.973Z,99985.00
2018-07-12T04:26:11.615Z,99984.00
2018-07-12T04:28:39.490Z,99982.00
2018-07-12T04:31:07.174Z,99985.00
2018-07-12T04:33:35.467Z,99989.00
2018-07-12T04:36:03.728Z,99992.00
2018-07-12T04:38:32.644Z,99992.00
2018-07-12T04:41:02.388Z,99987.00
2018-07-12T04:43:30.304Z,99977.00
2018-07-12T04:45:58.808Z,99982.00
2018-07-12T04:48:26.669Z,99985.00
2018-07-12T04:50:54.777Z,99985.00
2018-07-12T04:53:22.833Z,99986.00
2018-07-12T04:55:50.511Z,99987.00
2018-07-12T04:58:18.229Z,99981.00
2018-07-12T05:00:45.793Z,99977.00
2018-07-12T05:03:13.577Z,99975.00
2018-07-12T05:05:41.149Z,99978.00
2018-07-12T05:08:09.949Z,99975.00
2018-07-12T05:10:37.610Z,99979.00
2018-07-12T05:13:05.347Z,99977.00
2018-07-12T05:15:33.036Z,99982.00
2018-07-12T05:18:00.657Z,99985.00
2018-07-12T05:20:28.357Z,99976.00
2018-07-12T05:22:56.334Z,99985.00
2018-07-12T05:25:24.853Z,99983.00
2018-07-12T05:27:52.753Z,99988.00
2018-07-12T05:30:20.349Z,99989.00
2018-07-12T05:32:48.335Z,99986.00
2018-07-12T05:35:16.926Z,99990.00
2018-07-12T05:37:47.621Z,99996.00
2018-07-12T05:40:17.618Z,99991.00
2018-07-12T05:42:47.654Z,99984.00
2018-07-12T05:45:18.068Z,99989.00
2018-07-12T05:47:48.255Z,99991.00
2018-07-12T05:50:17.600Z,99990.00
2018-07-12T05:52:47.791Z,99992.00
2018-07-12T05:55:17.680Z,99997.00
2018-07-12T05:57:48.270Z,99996.00
2018-07-12T06:00:19.762Z,99987.00
2018-07-12T06:02:51.380Z,99990.00
2018-07-12T06:05:23.483Z,99998.00
2018-07-12T06:07:54.130Z,100001.00
2018-07-12T06:10:26.565Z,100008.00
2018-07-12T06:12:56.421Z,100011.00
2018-07-12T06:15:27.670Z,100009.00
2018-07-12T06:18:04.689Z,100017.00
2018-07-12T06:20:34.573Z,100020.00
2018-07-12T06:23:05.235Z,100024.00
2018-07-12T06:25:37.834Z,100031.00
2018-07-12T06:28:07.845Z,100032.00
2018-07-12T06:30:37.512Z,100032.00
2018-07-12T06:33:07.207Z,100034.00
2018-07-12T06:35:37.748Z,100038.00
2018-07-12T06:38:07.019Z,100047.00
2018-07-12T06:40:36.747Z,100041.00
2018-07-12T06:43:06.540Z,100043.00
2018-07-12T06:45:36.375Z,100046.00
2018-07-12T06:48:06.081Z,100049.00
2018-07-12T06:50:35.307Z,100055.00
2018-07-12T06:53:05.273Z,100052.00
2018-07-12T06:55:34.996Z,100048.00
2018-07-12T07:00:41.367Z,100055.00
2018-07-12T07:03:11.712Z,100057.00
2018-07-12T07:05:41.112Z,100058.00
2018-07-12T07:08:11.166Z,100060.00
2018-07-12T07:10:41.409Z,100066.00
2018-07-12T07:13:11.249Z,100067.00
2018-07-12T07:15:40.671Z,100061.00
2018-07-12T07:18:10.815Z,100059.00
2018-07-12T07:20:40.228Z,100061.00
2018-07-12T07:23:10.165Z,100063.00
2018-07-12T07:25:39.711Z,100064.00
2018-07-12T07:28:10.894Z,100062.00
2018-07-12T07:30:40.153Z,100056.00
2018-07-12T07:33:10.568Z,100064.00
2018-07-12T07:35:40.577Z,100069.00
2018-07-12T07:38:10.542Z,100067.00
2018-07-12T07:40:39.725Z,100073.00
2018-07-12T07:43:09.648Z,100070.00
2018-07-12T07:45:39.297Z,100072.00
2018-07-12T07:48:11.312Z,100076.00
2018-07-12T07:50:42.068Z,100081.00
2018-07-12T07:53:11.736Z,100079.00
2018-07-12T07:55:40.756Z,100081.00
2018-07-12T07:58:09.962Z,100080.00
2018-07-12T08:00:39.045Z,100076.00
2018-07-12T08:03:08.856Z,100075.00
2018-07-12T08:05:38.243Z,100084.00
2018-07-12T08:08:07.674Z,100082.00
2018-07-12T08:10:36.959Z,100074.00
2018-07-12T08:13:06.050Z,100075.00
2018-07-12T08:15:35.359Z,100076.00
2018-07-12T08:18:04.472Z,100080.00
2018-07-12T08:20:33.574Z,100080.00
2018-07-12T08:23:02.613Z,100086.00
2018-07-12T08:25:31.773Z,100080.00
2018-07-12T08:28:19.517Z,100083.00
2018-07-12T08:30:48.603Z,100085.00
2018-07-12T08:33:17.427Z,100092.00
2018-07-12T08:35:46.417Z,100092.00
2018-07-12T08:38:16.060Z,100095.00
2018-07-12T08:40:45.432Z,100091.00
2018-07-12T08:43:15.179Z,100092.00
2018-07-12T08:45:45.386Z,100092.00
2018-07-12T08:48:15.701Z,100093.00
2018-07-12T08:50:45.118Z,100093.00
2018-07-12T08:53:15.781Z,100092.00
2018-07-12T08:55:47.739Z,100085.00
2018-07-12T08:58:17.854Z,100091.00
2018-07-12T09:00:48.161Z,100087.00
2018-07-12T09:03:18.402Z,100090.00
2018-07-12T09:05:48.382Z,100094.00
2018-07-12T09:08:18.188Z,100094.00
2018-07-12T09:10:48.192Z,100090.00
2018-07-12T09:13:17.452Z,100089.00
2018-07-12T09:15:47.576Z,100096.00
2018-07-12T09:18:17.476Z,100093.00
2018-07-12T09:20:47.924Z,100087.00
2018-07-12T09:23:17.719Z,100087.00
2018-07-12T09:25:47.244Z,100090.00
2018-07-12T09:28:16.905Z,100090.00
2018-07-12T09:30:46.876Z,100094.00
2018-07-12T09:33:16.174Z,100092.00
2018-07-12T09:35:45.862Z,100093.00
2018-07-12T09:38:35.068Z,100094.00
2018-07-12T09:41:06.800Z,100098.00
2018-07-12T09:43:36.643Z,100096.00
2018-07-12T09:46:08.445Z,100089.00
2018-07-12T09:48:40.779Z,100093.00
2018-07-12T09:51:11.800Z,100085.00
2018-07-12T09:53:43.026Z,100091.00
2018-07-12T09:56:13.216Z,100098.00
2018-07-12T09:58:42.978Z,100101.00
2018-07-12T10:01:18.092Z,100101.00
2018-07-12T10:03:50.313Z,100099.00
2018-07-12T10:06:26.279Z,100097.00
2018-07-12T10:08:56.174Z,100096.00
2018-07-12T10:11:32.268Z,100100.00
2018-07-12T10:14:07.359Z,100106.00
2018-07-12T10:16:42.167Z,100105.00
2018-07-12T10:19:11.976Z,100103.00
2018-07-12T10:21:42.122Z,100100.00
2018-07-12T10:24:11.913Z,100100.00
2018-07-12T10:26:42.795Z,100101.00
2018-07-12T10:29:11.803Z,100096.00
2018-07-12T10:31:43.164Z,100097.00
2018-07-12T10:34:13.009Z,100098.00
2018-07-12T10:36:43.369Z,100093.00
2018-07-12T10:39:14.239Z,100092.00
2018-07-12T10:41:44.142Z,100096.00
2018-07-12T10:44:14.355Z,100094.00
2018-07-12T10:46:44.627Z,100090.00
2018-07-12T10:49:15.202Z,100087.00
2018-07-12T10:51:45.254Z,100087.00
2018-07-12T10:54:17.036Z,100090.00
2018-07-12T10:56:47.641Z,100090.00
2018-07-12T10:59:17.405Z,100087.00
2018-07-12T11:01:47.665Z,100084.00
2018-07-12T11:04:17.440Z,100080.00
2018-07-12T11:06:46.965Z,100084.00
2018-07-12T11:09:16.619Z,100088.00
2018-07-12T11:11:46.953Z,100084.00
2018-07-12T11:14:18.430Z,100087.00
2018-07-12T11:16:48.427Z,100090.00
2018-07-12T11:19:20.379Z,100087.00
2018-07-12T11:21:50.976Z,100085.00
2018-07-12T11:24:22.350Z,100090.00
2018-07-12T11:26:54.234Z,100081.00
2018-07-12T11:29:56.221Z,100078.00
2018-07-12T11:32:25.979Z,100071.00
2018-07-12T11:34:56.761Z,100072.00
2018-07-12T11:37:27.657Z,100077.00
2018-07-12T11:39:59.659Z,100078.00
2018-07-12T11:42:32.113Z,100086.00
2018-07-12T11:45:02.415Z,100086.00
2018-07-12T11:47:31.889Z,100075.00
2018-07-12T11:50:02.761Z,100074.00
2018-07-12T11:52:34.973Z,100069.00
2018-07-12T11:55:05.259Z,100068.00
2018-07-12T11:57:37.495Z,100067.00
2018-07-12T12:00:09.218Z,100068.00
2018-07-12T12:02:40.469Z,100067.00
2018-07-12T12:05:12.206Z,100067.00
2018-07-12T12:07:42.690Z,100059.00
2018-07-12T12:10:15.185Z,100070.00
2018-07-12T12:12:46.085Z,100062.00
2018-07-12T12:15:17.781Z,100057.00
2018-07-12T12:17:48.081Z,100064.00
2018-07-12T12:20:18.642Z,100064.00
2018-07-12T12:22:48.336Z,100061.00
2018-07-12T12:25:21.840Z,100064.00
2018-07-12T12:27:54.780Z,100062.00
2018-07-12T12:30:24.910Z,100057.00
2018-07-12T12:32:55.773Z,100058.00
2018-07-12T12:35:33.356Z,100058.00
2018-07-12T12:38:03.512Z,100057.00
2018-07-12T12:40:35.089Z,100054.00
2018-07-12T12:43:05.162Z,100056.00
2018-07-12T12:45:35.644Z,100057.00
2018-07-12T12:48:07.053Z,100060.00
2018-07-12T12:50:37.959Z,100052.00
2018-07-12T12:53:09.422Z,100054.00
2018-07-12T12:55:41.398Z,100051.00
2018-07-12T12:58:11.592Z,100052.00
2018-07-12T13:00:41.618Z,100044.00
2018-07-12T13:03:14.283Z,100046.00
2018-07-12T13:05:44.753Z,100043.00
2018-07-12T13:08:16.481Z,100039.00
2018-07-12T13:10:46.881Z,100037.00
2018-07-12T13:13:17.009Z,100036.00
2018-07-12T13:15:46.935Z,100036.00
2018-07-12T13:18:18.781Z,100044.00
2018-07-12T13:20:49.296Z,100050.00
2018-07-12T13:23:22.241Z,100038.00
2018-07-12T13:25:52.696Z,100039.00
2018-07-12T13:28:24.798Z,100036.00
2018-07-12T13:30:55.609Z,100031.00
2018-07-12T13:33:34.551Z,100029.00
2018-07-12T13:36:05.072Z,100023.00
2018-07-12T13:38:35.721Z,100019.00
2018-07-12T13:41:08.333Z,100018.00
2018-07-12T13:43:40.443Z,100018.00
2018-07-12T13:46:11.180Z,100024.00
2018-07-12T13:48:42.010Z,100016.00
2018-07-12T13:51:14.006Z,100018.00
2018-07-12T13:53:44.407Z,100016.00
2018-07-12T13:56:15.339Z,100010.00
2018-07-12T13:58:45.680Z,100009.00
2018-07-12T14:01:15.295Z,100009.00
2018-07-12T14:03:45.382Z,100004.00
2018-07-12T14:06:17.113Z,100009.00
2018-07-12T14:08:46.607Z,100008.00
2018-07-12T14:11:17.328Z,100001.00
2018-07-12T14:13:47.606Z,100001.00
2018-07-12T14:16:17.012Z,100001.00
2018-07-12T14:18:46.300Z,100007.00
2018-07-12T14:21:15.737Z,100004.00
2018-07-12T14:23:46.047Z,100003.00
2018-07-12T14:26:17.818Z,100004.00
2018-07-12T14:28:50.084Z,100006.00
2018-07-12T14:31:20.194Z,100004.00
2018-07-12T14:33:50.547Z,100004.00
2018-07-12T14:36:22.067Z,100004.00
2018-07-12T14:38:55.563Z,99999.00
2018-07-12T14:41:27.322Z,100002.00
2018-07-12T14:44:04.576Z,99999.00
2018-07-12T14:46:38.116Z,99996.00
2018-07-12T14:49:12.008Z,99998.00
2018-07-12T14:51:43.533Z,99999.00
2018-07-12T14:54:14.632Z,100001.00
2018-07-12T14:56:43.800Z,100006.00
2018-07-12T14:59:13.642Z,100001.00
2018-07-12T15:01:43.705Z,100010.00
2018-07-12T15:04:12.883Z,100006.00
2018-07-12T15:06:42.707Z,100010.00
2018-07-12T15:09:12.987Z,100007.00
2018-07-12T15:11:42.186Z,100008.00
2018-07-12T15:14:11.834Z,100011.00
2018-07-12T15:16:41.325Z,100009.00
2018-07-12T15:19:10.418Z,100008.00
2018-07-12T15:21:39.903Z,100001.00
2018-07-12T15:24:09.367Z,100002.00
2018-07-12T15:26:39.997Z,100002.00
2018-07-12T15:29:10.306Z,99998.00
2018-07-12T15:31:41.746Z,99999.00
2018-07-12T15:34:11.981Z,99998.00
2018-07-12T15:36:42.404Z,99990.00
2018-07-12T15:39:16.035Z,99993.00
2018-07-12T15:41:47.186Z,99995.00
2018-07-12T15:44:17.490Z,99989.00
2018-07-12T15:46:47.651Z,99992.00
2018-07-12T15:49:19.284Z,99989.00
2018-07-12T15:51:49.551Z,99988.00
2018-07-12T15:54:19.370Z,99984.00
2018-07-12T15:56:49.183Z,99982.00
2018-07-12T15:59:18.733Z,99984.00
2018-07-12T16:01:48.856Z,99986.00
2018-07-12T16:04:18.554Z,99983.00
2018-07-12T16:06:48.360Z,99982.00
2018-07-12T16:09:19.789Z,99980.00
2018-07-12T16:11:49.887Z,99977.00
2018-07-12T16:14:19.477Z,99980.00
2018-07-12T16:16:52.981Z,99976.00
2018-07-12T16:19:22.852Z,99982.00
2018-07-12T16:21:53.684Z,99977.00
2018-07-12T16:24:23.852Z,99980.00
2018-07-12T16:26:53.348Z,99986.00
2018-07-12T16:29:25.569Z,99984.00
2018-07-12T16:31:56.081Z,99983.00
2018-07-12T16:34:26.101Z,99983.00
2018-07-12T16:36:55.960Z,99985.00
2018-07-12T16:39:25.641Z,99981.00
2018-07-12T16:41:55.564Z,99984.00
2018-07-12T16:44:26.048Z,99987.00
2018-07-12T16:46:56.166Z,99981.00
2018-07-12T16:49:25.782Z,99982.00
2018-07-12T16:51:58.167Z,99980.00
2018-07-12T16:54:29.539Z,99974.00
2018-07-12T16:56:59.749Z,99978.00
2018-07-12T16:59:29.826Z,99982.00
2018-07-12T17:01:59.731Z,99972.00
2018-07-12T17:04:30.732Z,99981.00
2018-07-12T17:07:00.691Z,99983.00
2018-07-12T17:09:30.484Z,99980.00
2018-07-12T17:11:59.963Z,99979.00
2018-07-12T17:14:30.384Z,99986.00
2018-07-12T17:17:00.844Z,99981.00
2018-07-12T17:19:31.509Z,99983.00
2018-07-12T17:22:02.327Z,99981.00
2018-07-12T17:24:31.833Z,99986.00
2018-07-12T17:27:01.225Z,99982.00
2018-07-12T17:29:30.821Z,99988.00
2018-07-12T17:32:01.050Z,99987.00
2018-07-12T17:34:31.264Z,99989.00
2018-07-12T17:37:01.009Z,99985.00
2018-07-12T17:39:30.972Z,99982.00
2018-07-12T17:42:02.701Z,99986.00
2018-07-12T17:44:34.706Z,99983.00
2018-07-12T17:47:05.677Z,99988.00
2018-07-12T17:49:37.144Z,99988.00
2018-07-12T17:52:11.029Z,99987.00
2018-07-12T17:54:41.760Z,99990.00
2018-07-12T17:57:11.336Z,99991.00
2018-07-12T17:59:41.293Z,99995.00
2018-07-12T18:02:11.749Z,99994.00
2018-07-12T18:04:42.131Z,99992.00
2018-07-12T18:07:12.656Z,99994.00
2018-07-12T18:09:41.691Z,99996.00
2018-07-12T18:12:12.016Z,99997.00
2018-07-12T18:14:42.724Z,99996.00
2018-07-12T18:17:15.896Z,100000.00
2018-07-12T18:19:50.787Z,99996.00
2018-07-12T18:22:20.616Z,99996.00
2018-07-12T18:24:51.395Z,100002.00
2018-07-12T18:27:22.124Z,100000.00
2018-07-12T18:29:51.992Z,100003.00
2018-07-12T18:32:22.263Z,100000.00
2018-07-12T18:34:53.413Z,100000.00
2018-07-12T18:37:25.738Z,100001.00
2018-07-12T18:39:55.934Z,100003.00
2018-07-12T18:42:25.833Z,100002.00
2018-07-12T18:44:55.412Z,100003.00
2018-07-12T18:47:25.459Z,100005.00
2018-07-12T18:49:57.310Z,100005.00
2018-07-12T18:52:26.877Z,100011.00
2018-07-12T18:54:58.894Z,100009.00
2018-07-12T18:57:29.353Z,100013.00
2018-07-12T18:59:58.963Z,100017.00
2018-07-12T19:02:28.885Z,100021.00
2018-07-12T19:04:58.972Z,100017.00
2018-07-12T19:07:28.084Z,100022.00
2018-07-12T19:09:58.505Z,100021.00
2018-07-12T19:12:29.122Z,100026.00
2018-07-12T19:14:58.526Z,100026.00
2018-07-12T19:17:27.745Z,100033.00
2018-07-12T19:19:58.417Z,100028.00
2018-07-12T19:22:28.525Z,100031.00
2018-07-12T19:24:58.415Z,100030.00
2018-07-12T19:27:28.390Z,100033.00
2018-07-12T19:30:00.636Z,100033.00
2018-07-12T19:32:30.581Z,100033.00
2018-07-12T19:35:01.682Z,100038.00
2018-07-12T19:37:31.566Z,100036.00
2018-07-12T19:40:02.528Z,100044.00
2018-07-12T19:42:32.590Z,100038.00
2018-07-12T19:45:02.791Z,100040.00
2018-07-12T19:47:33.028Z,100044.00
2018-07-12T19:50:05.295Z,100053.00
2018-07-12T19:52:35.952Z,100054.00
2018-07-12T19:55:05.897Z,100061.00
2018-07-12T19:57:37.159Z,100065.00
2018-07-12T20:00:09.559Z,100071.00
2018-07-12T20:02:39.284Z,100075.00
2018-07-12T20:05:12.914Z,100076.00
2018-07-12T20:07:42.909Z,100088.00
2018-07-12T20:10:14.213Z,100097.00
2018-07-12T20:12:44.157Z,100098.00
2018-07-12T20:15:15.531Z,100106.00
2018-07-12T20:17:45.757Z,100106.00
2018-07-12T20:20:15.704Z,100107.00
2018-07-12T20:22:45.691Z,100107.00
2018-07-12T20:25:16.147Z,100112.00
2018-07-12T20:27:48.571Z,100110.00
2018-07-12T20:30:19.269Z,100112.00
2018-07-12T20:32:49.220Z,100114.00
2018-07-12T20:35:19.005Z,100115.00
2018-07-12T20:37:49.440Z,100116.00
2018-07-12T20:40:25.295Z,100121.00
2018-07-12T20:42:56.214Z,100120.00
2018-07-12T20:45:31.670Z,100124.00
2018-07-12T20:48:02.273Z,100125.00
2018-07-12T20:50:31.547Z,100126.00
2018-07-12T20:53:02.346Z,100125.00
2018-07-12T20:55:31.754Z,100125.00
2018-07-12T20:58:03.611Z,100125.00
2018-07-12T21:00:32.933Z,100129.00
2018-07-12T21:03:03.496Z,100130.00
2018-07-12T21:05:36.647Z,100135.00
2018-07-12T21:08:08.766Z,100141.00
2018-07-12T21:10:39.043Z,100142.00
2018-07-12T21:13:09.219Z,100143.00
2018-07-12T21:15:42.991Z,100147.00
2018-07-12T21:18:15.298Z,100147.00
2018-07-12T21:20:51.928Z,100149.00
2018-07-12T21:23:22.131Z,100153.00
2018-07-12T21:25:51.804Z,100156.00
2018-07-12T21:28:21.115Z,100160.00
2018-07-12T21:30:50.296Z,100164.00
2018-07-12T21:33:19.440Z,100167.00
2018-07-12T21:35:48.602Z,100161.00
2018-07-12T21:38:18.891Z,100167.00
2018-07-12T21:40:48.265Z,100173.00
2018-07-12T21:43:18.128Z,100167.00
2018-07-12T21:45:48.256Z,100172.00
2018-07-12T21:48:17.452Z,100176.00
2018-07-12T21:50:47.538Z,100176.00
2018-07-12T21:53:16.702Z,100177.00
2018-07-12T21:55:45.830Z,100177.00
2018-07-12T21:58:15.298Z,100178.00
2018-07-12T22:00:44.484Z,100179.00
2018-07-12T22:03:13.854Z,100183.00
2018-07-12T22:05:43.088Z,100187.00
2018-07-12T22:08:13.970Z,100185.00
2018-07-12T22:10:44.668Z,100182.00
2018-07-12T22:13:14.881Z,100180.00
2018-07-12T22:15:45.323Z,100175.00
2018-07-12T22:18:16.053Z,100180.00
2018-07-12T22:20:45.241Z,100182.00
2018-07-12T22:23:14.471Z,100180.00
2018-07-12T22:25:43.652Z,100184.00
2018-07-12T22:28:13.665Z,100180.00
2018-07-12T22:30:43.067Z,100184.00
2018-07-12T22:33:12.409Z,100187.00
2018-07-12T22:35:41.778Z,100187.00
2018-07-12T22:38:10.708Z,100190.00
2018-07-12T22:40:39.854Z,100191.00
2018-07-12T22:43:09.842Z,100188.00
2018-07-12T22:45:40.176Z,100191.00
2018-07-12T22:48:09.543Z,100187.00
2018-07-12T22:50:38.985Z,100189.00
2018-07-12T22:53:09.122Z,100189.00
2018-07-12T22:55:38.439Z,100184.00
2018-07-12T22:58:08.460Z,100181.00
2018-07-12T23:00:37.909Z,100178.00
2018-07-12T23:03:07.106Z,100182.00
2018-07-12T23:05:36.249Z,100187.00
2018-07-12T23:08:06.115Z,100186.00
2018-07-12T23:10:35.423Z,100187.00
2018-07-12T23:13:04.683Z,100186.00
2018-07-12T23:15:34.545Z,100185.00
2018-07-12T23:18:04.800Z,100186.00
2018-07-12T23:20:34.076Z,100181.00
2018-07-12T23:23:03.300Z,100179.00
2018-07-12T23:25:32.555Z,100187.00
2018-07-12T23:28:01.808Z,100187.00
2018-07-12T23:30:31.035Z,100181.00
2018-07-12T23:33:00.281Z,100183.00
2018-07-12T23:35:29.608Z,100184.00
2018-07-12T23:37:58.916Z,100192.00
2018-07-12T23:40:28.100Z,100188.00
2018-07-12T23:42:57.732Z,100191.00
2018-07-12T23:45:27.330Z,100186.00
2018-07-12T23:47:56.740Z,100191.00
2018-07-12T23:50:25.914Z,100187.00
2018-07-12T23:52:55.155Z,100183.00
2018-07-12T23:55:24.331Z,100183.00
2018-07-12T23:57:53.462Z,100181.00
